sensor_id;sensor_type;location;lat;lon;timestamp;pressure;altitude;pressure_sealevel;temperature;humidity
63622;BME280;49770;47.544;19.074;2023-01-30T05:07:20;100598.66;;;-6.37;100.00
63622;BME280;49770;47.544;19.074;2023-01-30T05:10:24;100595.88;;;-6.44;100.00
63622;BME280;49770;47.544;19.074;2023-01-30T05:13:40;100593.34;;;-6.43;100.00
63622;BME280;49770;47.544;19.074;2023-01-30T05:16:45;100595.97;;;-6.40;100.00
63622;BME280;49770;47.544;19.074;2023-01-30T05:19:49;100594.66;;;-6.22;100.00
63622;BME280;49770;47.544;19.074;2023-01-30T05:22:52;100593.78;;;-6.23;100.00
63622;BME280;49770;47.544;19.074;2023-01-30T05:25:56;100593.72;;;-6.26;100.00
63622;BME280;49770;47.544;19.074;2023-01-30T05:29:01;100590.22;;;-6.28;100.00
63622;BME280;49770;47.544;19.074;2023-01-30T05:32:04;100597.16;;;-6.27;100.00
63622;BME280;49770;47.544;19.074;2023-01-30T05:35:07;100591.97;;;-6.27;100.00
63622;BME280;49770;47.544;19.074;2023-01-30T05:38:10;100585.09;;;-6.26;100.00
63622;BME280;49770;47.544;19.074;2023-01-30T05:41:15;100581.69;;;-6.24;100.00
63622;BME280;49770;47.544;19.074;2023-01-30T05:44:18;100582.59;;;-6.22;100.00
63622;BME280;49770;47.544;19.074;2023-01-30T05:47:21;100575.78;;;-6.19;100.00
63622;BME280;49770;47.544;19.074;2023-01-30T05:50:23;100575.84;;;-6.16;100.00
63622;BME280;49770;47.544;19.074;2023-01-30T05:53:29;100574.19;;;-6.13;100.00
63622;BME280;49770;47.544;19.074;2023-01-30T05:56:32;100580.28;;;-6.09;100.00
63622;BME280;49770;47.544;19.074;2023-01-30T05:59:35;100589.91;;;-6.02;100.00
63622;BME280;49770;47.544;19.074;2023-01-30T06:02:38;100589.97;;;-5.99;100.00
63622;BME280;49770;47.544;19.074;2023-01-30T06:05:41;100583.13;;;-5.97;100.00
63622;BME280;49770;47.544;19.074;2023-01-30T06:08:45;100588.44;;;-5.89;100.00
63622;BME280;49770;47.544;19.074;2023-01-30T06:11:47;100579.03;;;-5.87;100.00
63622;BME280;49770;47.544;19.074;2023-01-30T06:14:50;100581.69;;;-5.82;100.00
63622;BME280;49770;47.544;19.074;2023-01-30T06:17:53;100591.34;;;-5.73;100.00
63622;BME280;49770;47.544;19.074;2023-01-30T06:20:56;100578.47;;;-5.72;100.00
63622;BME280;49770;47.544;19.074;2023-01-30T06:23:59;100574.19;;;-5.70;100.00
63622;BME280;49770;47.544;19.074;2023-01-30T06:27:04;100574.38;;;-5.60;100.00
63622;BME280;49770;47.544;19.074;2023-01-30T06:30:08;100582.34;;;-5.49;100.00
63622;BME280;49770;47.544;19.074;2023-01-30T06:33:11;100594.44;;;-5.48;100.00
63622;BME280;49770;47.544;19.074;2023-01-30T06:36:17;100586.78;;;-5.42;100.00
63622;BME280;49770;47.544;19.074;2023-01-30T06:39:23;100575.03;;;-5.26;100.00
63622;BME280;49770;47.544;19.074;2023-01-30T06:42:26;100572.41;;;-4.78;100.00
63622;BME280;49770;47.544;19.074;2023-01-30T06:45:29;100559.66;;;-4.66;100.00
63622;BME280;49770;47.544;19.074;2023-01-30T06:48:32;100567.31;;;-4.70;100.00
63622;BME280;49770;47.544;19.074;2023-01-30T06:51:35;100569.97;;;-4.67;100.00
63622;BME280;49770;47.544;19.074;2023-01-30T06:54:38;100565.97;;;-4.47;100.00
63622;BME280;49770;47.544;19.074;2023-01-30T06:57:41;100563.75;;;-4.23;100.00
63622;BME280;49770;47.544;19.074;2023-01-30T07:00:45;100554.50;;;-4.02;100.00
63622;BME280;49770;47.544;19.074;2023-01-30T07:03:56;100559.81;;;-3.95;100.00
63622;BME280;49770;47.544;19.074;2023-01-30T07:07:01;100554.59;;;-3.96;100.00
63622;BME280;49770;47.544;19.074;2023-01-30T07:10:05;100547.12;;;-3.68;100.00
63622;BME280;49770;47.544;19.074;2023-01-30T07:13:11;100559.31;;;-3.62;100.00
63622;BME280;49770;47.544;19.074;2023-01-30T07:16:13;100556.84;;;-3.52;100.00
63622;BME280;49770;47.544;19.074;2023-01-30T07:19:16;100557.00;;;-3.37;100.00
63622;BME280;49770;47.544;19.074;2023-01-30T07:22:19;100555.34;;;-3.31;100.00
63622;BME280;49770;47.544;19.074;2023-01-30T07:25:24;100550.41;;;-3.06;100.00
63622;BME280;49770;47.544;19.074;2023-01-30T07:28:27;100548.75;;;-2.93;100.00
63622;BME280;49770;47.544;19.074;2023-01-30T07:31:31;100540.16;;;-2.89;100.00
63622;BME280;49770;47.544;19.074;2023-01-30T07:34:34;100546.22;;;-2.85;100.00
63622;BME280;49770;47.544;19.074;2023-01-30T07:37:40;100553.16;;;-2.84;100.00
63622;BME280;49770;47.544;19.074;2023-01-30T07:40:42;100547.25;;;-2.66;100.00
63622;BME280;49770;47.544;19.074;2023-01-30T07:43:47;100544.78;;;-2.44;100.00
63622;BME280;49770;47.544;19.074;2023-01-30T07:46:50;100543.22;;;-2.20;100.00
63622;BME280;49770;47.544;19.074;2023-01-30T07:49:53;100538.94;;;-2.06;100.00
63622;BME280;49770;47.544;19.074;2023-01-30T07:52:56;100530.28;;;-2.06;100.00
63622;BME280;49770;47.544;19.074;2023-01-30T07:55:59;100522.53;;;-1.92;100.00
63622;BME280;49770;47.544;19.074;2023-01-30T07:59:09;100532.97;;;-1.80;100.00
63622;BME280;49770;47.544;19.074;2023-01-30T08:02:13;100536.53;;;-1.56;100.00
63622;BME280;49770;47.544;19.074;2023-01-30T08:05:16;100527.03;;;-1.54;100.00
63622;BME280;49770;47.544;19.074;2023-01-30T08:08:19;100527.03;;;-1.32;100.00
63622;BME280;49770;47.544;19.074;2023-01-30T08:11:22;100525.31;;;-1.28;100.00
63622;BME280;49770;47.544;19.074;2023-01-30T08:14:25;100507.97;;;-1.17;100.00
63622;BME280;49770;47.544;19.074;2023-01-30T08:17:30;100500.19;;;-0.84;100.00
63622;BME280;49770;47.544;19.074;2023-01-30T08:20:33;100476.75;;;-1.14;100.00
63622;BME280;49770;47.544;19.074;2023-01-30T08:23:36;100458.50;;;-1.04;100.00
63622;BME280;49770;47.544;19.074;2023-01-30T08:26:38;100450.66;;;-0.75;100.00
63622;BME280;49770;47.544;19.074;2023-01-30T08:29:43;100439.31;;;-0.53;100.00
63622;BME280;49770;47.544;19.074;2023-01-30T08:32:46;100449.72;;;-0.36;100.00
63622;BME280;49770;47.544;19.074;2023-01-30T08:35:50;100452.25;;;-0.18;100.00
63622;BME280;49770;47.544;19.074;2023-01-30T08:38:52;100446.16;;;-0.15;100.00
63622;BME280;49770;47.544;19.074;2023-01-30T08:41:55;100453.97;;;-0.12;100.00
63622;BME280;49770;47.544;19.074;2023-01-30T08:44:58;100450.41;;;0.03;100.00
63622;BME280;49770;47.544;19.074;2023-01-30T08:48:03;100446.06;;;0.04;100.00
63622;BME280;49770;47.544;19.074;2023-01-30T08:51:06;100443.38;;;0.18;100.00
63622;BME280;49770;47.544;19.074;2023-01-30T08:54:09;100443.44;;;0.08;100.00
63622;BME280;49770;47.544;19.074;2023-01-30T08:57:13;100440.78;;;0.15;100.00
63622;BME280;49770;47.544;19.074;2023-01-30T09:00:17;100446.06;;;0.02;100.00
63622;BME280;49770;47.544;19.074;2023-01-30T09:03:20;100448.50;;;0.33;100.00
63622;BME280;49770;47.544;19.074;2023-01-30T09:06:23;100452.84;;;0.37;100.00
63622;BME280;49770;47.544;19.074;2023-01-30T09:09:28;100444.97;;;0.40;100.00
63622;BME280;49770;47.544;19.074;2023-01-30T09:12:31;100445.78;;;0.50;100.00
63622;BME280;49770;47.544;19.074;2023-01-30T09:15:36;100437.03;;;0.58;100.00
63622;BME280;49770;47.544;19.074;2023-01-30T09:18:41;100436.31;;;0.35;100.00
63622;BME280;49770;47.544;19.074;2023-01-30T09:21:44;100435.47;;;0.35;100.00
63622;BME280;49770;47.544;19.074;2023-01-30T09:24:47;100423.13;;;0.56;100.00
63622;BME280;49770;47.544;19.074;2023-01-30T09:27:50;100411.75;;;0.64;100.00
63622;BME280;49770;47.544;19.074;2023-01-30T09:30:56;100412.63;;;0.59;100.00
63622;BME280;49770;47.544;19.074;2023-01-30T09:34:00;100410.78;;;0.75;100.00
63622;BME280;49770;47.544;19.074;2023-01-30T09:37:02;100409.81;;;0.85;100.00
63622;BME280;49770;47.544;19.074;2023-01-30T09:40:13;100398.69;;;0.64;100.00
63622;BME280;49770;47.544;19.074;2023-01-30T09:53:17;100371.94;;;0.37;100.00
63622;BME280;49770;47.544;19.074;2023-01-30T09:56:25;100360.53;;;0.46;100.00
63622;BME280;49770;47.544;19.074;2023-01-30T09:59:33;100367.53;;;0.43;100.00
63622;BME280;49770;47.544;19.074;2023-01-30T10:02:49;100358.16;;;0.20;100.00
63622;BME280;49770;47.544;19.074;2023-01-30T10:05:58;100354.59;;;0.27;100.00
63622;BME280;49770;47.544;19.074;2023-01-30T10:09:21;100358.94;;;0.28;100.00
63622;BME280;49770;47.544;19.074;2023-01-30T10:12:56;100340.19;;;0.83;100.00
63622;BME280;49770;47.544;19.074;2023-01-30T10:26:12;100324.28;;;1.77;100.00
63622;BME280;49770;47.544;19.074;2023-01-30T10:29:30;100325.97;;;1.81;100.00
63622;BME280;49770;47.544;19.074;2023-01-30T10:32:43;100308.37;;;1.92;99.87
63622;BME280;49770;47.544;19.074;2023-01-30T10:36:02;100298.09;;;1.78;99.24
63622;BME280;49770;47.544;19.074;2023-01-30T10:39:19;100288.28;;;1.93;99.27
63622;BME280;49770;47.544;19.074;2023-01-30T10:42:31;100282.13;;;1.97;99.78
63622;BME280;49770;47.544;19.074;2023-01-30T10:45:49;100281.22;;;2.01;98.55
63622;BME280;49770;47.544;19.074;2023-01-30T10:49:05;100272.47;;;2.02;96.97
63622;BME280;49770;47.544;19.074;2023-01-30T10:52:32;100251.75;;;1.88;100.00
63622;BME280;49770;47.544;19.074;2023-01-30T10:55:47;100252.75;;;1.78;100.00
63622;BME280;49770;47.544;19.074;2023-01-30T10:59:27;100239.84;;;1.67;100.00
63622;BME280;49770;47.544;19.074;2023-01-30T11:02:45;100219.94;;;1.59;100.00
63622;BME280;49770;47.544;19.074;2023-01-30T11:06:09;100231.91;;;1.74;100.00
63622;BME280;49770;47.544;19.074;2023-01-30T11:09:13;100220.63;;;1.71;100.00
63622;BME280;49770;47.544;19.074;2023-01-30T11:12:15;100199.63;;;1.74;100.00
63622;BME280;49770;47.544;19.074;2023-01-30T11:15:20;100201.72;;;1.52;100.00
63622;BME280;49770;47.544;19.074;2023-01-30T11:18:26;100194.16;;;1.34;100.00
63622;BME280;49770;47.544;19.074;2023-01-30T11:21:54;100197.81;;;1.21;100.00
63622;BME280;49770;47.544;19.074;2023-01-30T11:25:12;100187.97;;;1.39;100.00
63622;BME280;49770;47.544;19.074;2023-01-30T11:28:16;100175.13;;;1.25;100.00
63622;BME280;49770;47.544;19.074;2023-01-30T11:31:25;100172.53;;;1.21;100.00
63622;BME280;49770;47.544;19.074;2023-01-30T11:34:43;100173.38;;;1.24;100.00
63622;BME280;49770;47.544;19.074;2023-01-30T11:37:46;100158.75;;;1.12;100.00
63622;BME280;49770;47.544;19.074;2023-01-30T11:41:00;100155.03;;;1.28;100.00
63622;BME280;49770;47.544;19.074;2023-01-30T11:44:04;100140.09;;;1.37;100.00
63622;BME280;49770;47.544;19.074;2023-01-30T11:47:11;100126.97;;;1.40;100.00
63622;BME280;49770;47.544;19.074;2023-01-30T11:50:19;100138.25;;;1.43;100.00
63622;BME280;49770;47.544;19.074;2023-01-30T11:53:48;100132.34;;;1.30;100.00
63622;BME280;49770;47.544;19.074;2023-01-30T11:56:55;100119.19;;;1.37;100.00
63622;BME280;49770;47.544;19.074;2023-01-30T12:00:00;100125.59;;;1.15;100.00
63622;BME280;49770;47.544;19.074;2023-01-30T12:03:15;100130.56;;;1.32;100.00
63622;BME280;49770;47.544;19.074;2023-01-30T12:06:27;100125.59;;;1.15;100.00
63622;BME280;49770;47.544;19.074;2023-01-30T12:09:34;100113.25;;;1.24;100.00
63622;BME280;49770;47.544;19.074;2023-01-30T12:12:46;100106.06;;;1.40;100.00
63622;BME280;49770;47.544;19.074;2023-01-30T12:16:01;100101.75;;;1.37;100.00
63622;BME280;49770;47.544;19.074;2023-01-30T12:22:45;100107.09;;;1.29;100.00
63622;BME280;49770;47.544;19.074;2023-01-30T12:32:25;100043.09;;;1.00;100.00
63622;BME280;49770;47.544;19.074;2023-01-30T12:35:55;100038.84;;;0.93;100.00
63622;BME280;49770;47.544;19.074;2023-01-30T12:46:14;100024.88;;;0.97;100.00
63622;BME280;49770;47.544;19.074;2023-01-30T12:49:48;100021.53;;;0.87;100.00
63622;BME280;49770;47.544;19.074;2023-01-30T13:05:41;100032.50;;;1.10;100.00
63622;BME280;49770;47.544;19.074;2023-01-30T13:22:14;99974.25;;;1.03;100.00
63622;BME280;49770;47.544;19.074;2023-01-30T13:25:42;99969.13;;;0.97;100.00
63622;BME280;49770;47.544;19.074;2023-01-30T13:28:55;99977.25;;;0.79;100.00
63622;BME280;49770;47.544;19.074;2023-01-30T13:32:02;99972.13;;;0.72;100.00
63622;BME280;49770;47.544;19.074;2023-01-30T13:35:35;99977.38;;;0.72;100.00
63622;BME280;49770;47.544;19.074;2023-01-30T13:38:41;99972.81;;;0.85;100.00
63622;BME280;49770;47.544;19.074;2023-01-30T13:41:54;99977.06;;;0.90;100.00
63622;BME280;49770;47.544;19.074;2023-01-30T13:45:00;99975.88;;;1.10;100.00
63622;BME280;49770;47.544;19.074;2023-01-30T13:51:33;99974.12;;;1.11;100.00
63622;BME280;49770;47.544;19.074;2023-01-30T13:55:01;99972.94;;;1.29;100.00
63622;BME280;49770;47.544;19.074;2023-01-30T13:58:12;99964.97;;;1.35;100.00
63622;BME280;49770;47.544;19.074;2023-01-30T14:01:19;99967.44;;;1.44;100.00
63622;BME280;49770;47.544;19.074;2023-01-30T14:07:42;99954.16;;;1.57;100.00
63622;BME280;49770;47.544;19.074;2023-01-30T14:10:48;99950.88;;;1.44;100.00
63622;BME280;49770;47.544;19.074;2023-01-30T14:13:51;99953.31;;;1.55;100.00
63622;BME280;49770;47.544;19.074;2023-01-30T14:17:16;99944.47;;;1.60;100.00
63622;BME280;49770;47.544;19.074;2023-01-30T14:20:19;99953.03;;;1.69;100.00
63622;BME280;49770;47.544;19.074;2023-01-30T14:23:32;99958.25;;;1.69;100.00
63622;BME280;49770;47.544;19.074;2023-01-30T14:29:57;99964.34;;;1.71;100.00
63622;BME280;49770;47.544;19.074;2023-01-30T14:36:33;99976.72;;;1.61;100.00
63622;BME280;49770;47.544;19.074;2023-01-30T14:39:38;99973.41;;;1.51;100.00
63622;BME280;49770;47.544;19.074;2023-01-30T14:42:42;99975.41;;;1.38;100.00
63622;BME280;49770;47.544;19.074;2023-01-30T14:49:09;99980.16;;;1.14;100.00
63622;BME280;49770;47.544;19.074;2023-01-30T14:52:38;99979.06;;;1.28;100.00
63622;BME280;49770;47.544;19.074;2023-01-30T14:55:42;99970.50;;;1.19;100.00
63622;BME280;49770;47.544;19.074;2023-01-30T14:59:00;99973.44;;;1.01;100.00
63622;BME280;49770;47.544;19.074;2023-01-30T15:05:36;99969.25;;;0.89;100.00
63622;BME280;49770;47.544;19.074;2023-01-30T15:08:42;99964.78;;;0.97;100.00
63622;BME280;49770;47.544;19.074;2023-01-30T15:11:54;99958.06;;;0.82;100.00
63622;BME280;49770;47.544;19.074;2023-01-30T15:29:50;99957.06;;;0.89;100.00
63622;BME280;49770;47.544;19.074;2023-01-30T15:33:17;99957.00;;;0.92;100.00
63622;BME280;49770;47.544;19.074;2023-01-30T15:36:36;99957.84;;;0.96;100.00
63622;BME280;49770;47.544;19.074;2023-01-30T15:39:40;99972.63;;;0.97;100.00
63622;BME280;49770;47.544;19.074;2023-01-30T15:52:39;99979.25;;;0.62;100.00
63622;BME280;49770;47.544;19.074;2023-01-30T15:55:46;99962.81;;;0.55;100.00
63622;BME280;49770;47.544;19.074;2023-01-30T15:58:49;99967.16;;;0.56;100.00
63622;BME280;49770;47.544;19.074;2023-01-30T16:08:20;99994.53;;;0.29;100.00
63622;BME280;49770;47.544;19.074;2023-01-30T16:11:37;99992.59;;;0.40;100.00
63622;BME280;49770;47.544;19.074;2023-01-30T16:14:40;99985.72;;;0.37;100.00
63622;BME280;49770;47.544;19.074;2023-01-30T16:17:49;99979.53;;;0.42;100.00
63622;BME280;49770;47.544;19.074;2023-01-30T16:21:00;99986.56;;;0.36;100.00
63622;BME280;49770;47.544;19.074;2023-01-30T16:27:33;99992.78;;;0.28;100.00
